Weather observations for the past three days for
Toccoa Le Tourneau Airport
Imperial (Metric)
Date Time (edt) Wind (mph) Vis. (mi.) Weather Sky Cond. Temperature (ºF) Relative Humidity Wind Chill (°F) Heat Index (°F) Pressure Precipitation (in)
Air Dwpt 6 hour altimeter (in) sea level (mb) 1 hr 3 hr 6 hr
Max. Min.
10 13:15 E 7 7.00 Fair CLR 78.8 46.4 32% 79 30.06 0.0
10 12:55 E 6 10.00 Fair CLR 78.8 51.8 39% 79 30.06 0.0
10 12:35 N 3 10.00 Fair CLR 77 53.6 44% 78 30.06 0.0
10 12:15 SE 5 10.00 Fair CLR 77 55.4 47% 79 30.07 0.0
10 11:55 NE 3 10.00 Fair CLR 75.2 55.4 50% 78 30.06 0.0
10 11:35 E 6 10.00 Fair CLR 77 53.6 44% 78 30.07 0.0
10 11:15 E 6 10.00 Fair CLR 75.2 51.8 44% 78 30.07 0.0
10 10:55 NW 3 10.00 Fair CLR 75.2 53.6 47% 78 30.06 0.0
10 10:35 NW 5 10.00 Fair CLR 73.4 53.6 50% 30.07 0.0
10 10:15 NE 6 5.00 Fair with Haze CLR 73.4 57.2 57% 30.06 0.0
10 09:55 N 5 10.00 Fair CLR 71.6 57.2 61% 30.06 0.0
10 09:35 N 6 10.00 Fair CLR 71.6 57.2 61% 30.05 0.0
10 09:15 N 6 10.00 Fair CLR 69.8 57.2 64% 30.06 0.0
10 08:55 Calm 10.00 Fair CLR 66.2 59 78% 30.05 0.0
10 08:35 N 3 10.00 Fair CLR 66.2 57.2 73% 30.05 0.0
10 08:15 Calm 10.00 Fair CLR 62.6 57.2 83% 30.03 0.0
10 07:55 NW 3 10.00 Fair CLR 60.8 57.2 88% 30.03 0.0
10 07:35 NW 3 10.00 Fair CLR 57.2 55.4 94% 30.02 0.0
10 07:15 NW 3 10.00 Fair CLR 55.4 55.4 100% 30.02 0.0
10 06:55 Calm 10.00 Fair CLR 55.4 55.4 100% 30.01 0.0
10 06:35 Calm 10.00 Fair CLR 55.4 55.4 100% 30 0.0
10 06:15 Calm 10.00 Fair CLR 59 55.4 88% 29.99 0.0
10 05:55 NW 5 10.00 Fair CLR 60.8 57.2 88% 29.99 0.0
10 05:35 W 5 10.00 Fair CLR 57.2 57.2 100% 29.98 0.0
10 05:15 NW 3 10.00 Fair CLR 59 57.2 94% 29.98 0.0
10 04:55 NW 5 10.00 Fair CLR 60.8 57.2 88% 29.97 0.0
10 04:35 N 3 10.00 Fair CLR 60.8 57.2 88% 29.97 0.0
10 04:15 NW 7 10.00 Fair CLR 60.8 57.2 88% 29.96 0.0
10 03:55 NW 7 10.00 Fair CLR 62.6 57.2 83% 29.96 0.0
10 03:35 N 5 10.00 Fair CLR 60.8 59 94% 29.96 0.0
10 03:15 W 3 10.00 Fair CLR 62.6 59 88% 29.95 0.0
10 02:55 W 6 10.00 Fair CLR 62.6 59 88% 29.96 0.0
10 02:35 NW 5 10.00 Fair CLR 62.6 59 88% 29.96 0.0
10 02:15 W 6 10.00 Fair CLR 64.4 59 83% 29.96 0.0
10 01:55 W 6 10.00 Fair CLR 64.4 59 83% 29.96 0.0
10 01:35 W 7 10.00 Fair CLR 64.4 59 83% 29.96 0.0
10 01:15 W 3 10.00 Fair CLR 62.6 59 88% 29.97 0.0
10 00:55 SW 7 10.00 Fair CLR 64.4 59 83% 29.97 0.0
10 00:35 SW 12 10.00 Fair CLR 64.4 59 83% 29.97 0.0
10 00:15 SW 8 10.00 Fair CLR 64.4 59 83% 29.97 0.0
09 23:55 SW 6 10.00 Fair CLR 64.4 60.8 88% 29.96 0.0
09 23:35 SW 8 10.00 Fair CLR 64.4 60.8 88% 29.96 0.0
09 23:15 SW 10 10.00 Fair CLR 64.4 60.8 88% 29.96 0.0
09 22:55 SW 7 10.00 Fair CLR 64.4 60.8 88% 29.96 0.0
09 22:35 SW 8 10.00 Fair CLR 64.4 60.8 88% 29.95 0.0
09 22:15 SW 8 10.00 Fair CLR 64.4 60.8 88% 29.95 0.0
09 21:55 S 6 10.00 Fair CLR 64.4 60.8 88% 29.94 0.0
09 21:35 SW 8 10.00 Fair CLR 66.2 60.8 83% 29.93 0.0
09 21:15 SW 9 10.00 Fair CLR 66.2 60.8 83% 29.92 0.0
09 20:55 SW 9 10.00 Fair CLR 66.2 60.8 83% 29.92 0.0
09 20:35 S 5 10.00 Fair CLR 68 60.8 78% 29.92 0.0
09 20:15 SW 8 10.00 Fair CLR 68 60.8 78% 29.92 0.0
09 19:55 SW 8 10.00 Fair CLR 69.8 60.8 73% 29.9 0.0
09 19:35 SW 8 10.00 Fair CLR 69.8 60.8 73% 29.9 0.0
09 19:15 SW 13 G 17 10.00 Fair CLR 71.6 60.8 69% 29.89 0.0
09 18:55 SW 10 10.00 Fair CLR 71.6 60.8 69% 29.88 0.0
09 18:35 SW 12 10.00 Fair CLR 71.6 60.8 69% 29.88 0.0
09 18:15 SW 13 G 18 10.00 Fair CLR 71.6 60.8 69% 29.88 0.0
09 17:55 SW 14 G 18 10.00 Fair CLR 71.6 60.8 69% 29.87 0.0
09 17:35 SW 14 10.00 Fair CLR 73.4 60.8 65% 29.88 0.0
09 17:15 SW 15 10.00 Partly Cloudy SCT030 73.4 60.8 65% 29.86 0.0
09 16:55 SW 9 G 18 10.00 Fair CLR 73.4 60.8 65% 29.87 0.0
09 16:35 S 10 10.00 Partly Cloudy SCT032 SCT039 73.4 60.8 65% 29.87 0.0
09 16:15 S 9 10.00 Mostly Cloudy BKN034 BKN041 71.6 59 65% 29.87 0.0
09 15:55 S 10 10.00 Mostly Cloudy BKN034 BKN044 73.4 59 61% 29.88 0.0
09 15:35 S 8 10.00 Mostly Cloudy BKN032 BKN039 71.6 59 65% 29.89 0.0
09 15:15 S 7 10.00 Mostly Cloudy BKN034 71.6 60.8 69% 29.89 0.0
09 14:55 SW 8 10.00 Partly Cloudy SCT032 73.4 60.8 65% 29.89 0.0
09 14:35 S 7 10.00 Partly Cloudy SCT028 71.6 60.8 69% 29.89 0.0
09 14:15 SW 12 10.00 Partly Cloudy SCT027 73.4 60.8 65% 29.89 0.0
09 13:35 SW 9 10.00 Partly Cloudy SCT021 SCT026 71.6 59 65% 29.91 0.0
09 13:15 SW 9 10.00 Partly Cloudy SCT016 69.8 60.8 73% 29.91 0.0
09 12:55 SW 9 10.00 Partly Cloudy SCT016 SCT021 SCT032 68 60.8 78% 29.92 0.0
09 12:35 SW 9 10.00 Overcast BKN021 BKN027 OVC032 64.4 59 83% 29.93 0.0
09 12:10 SW 7 10.00 Overcast OVC019 64.4 59 83% 29.93 0.0
09 11:55 SW 10 10.00 Overcast OVC021 64.4 59 83% 29.94 0.0
09 11:35 S 5 10.00 Overcast OVC023 64.4 59 83% 29.94 0.0
09 11:15 SW 8 10.00 Overcast OVC027 64.4 57.2 78% 29.94 0.0
09 10:55 SW 6 10.00 Overcast OVC027 64.4 57.2 78% 29.94 0.0
09 10:35 SW 5 10.00 Overcast OVC025 62.6 57.2 83% 29.93 0.0
09 10:15 SW 5 10.00 Overcast OVC025 62.6 57.2 83% 29.93 0.0
09 09:55 Calm 10.00 Overcast OVC025 60.8 57.2 88% 29.92 0.0
09 09:15 Calm 10.00 Overcast OVC029 59 55.4 88% 29.91 0.0
09 08:55 Calm 10.00 Overcast OVC031 59 55.4 88% 29.92 0.0
09 08:35 Calm 10.00 Overcast OVC033 57.2 55.4 94% 29.93 0.0
09 08:15 Calm 10.00 Overcast SCT026 OVC035 57.2 53.6 88% 29.93 0.0
09 07:55 Calm 10.00 Overcast BKN026 OVC039 55.4 53.6 94% 29.94 0.0
09 07:35 Calm 10.00 Overcast BKN026 OVC039 55.4 53.6 94% 29.93 0.0
09 07:15 Calm 10.00 Overcast OVC026 55.4 53.6 94% 29.93 0.0
09 06:55 Calm 10.00 Overcast OVC026 55.4 53.6 94% 29.93 0.0
09 06:35 Calm 10.00 Overcast BKN026 OVC090 53.6 53.6 100% 29.93 0.0
09 06:15 Calm 10.00 Mostly Cloudy SCT060 BKN090 BKN110 53.6 53.6 100% 29.92 0.0
09 05:35 Calm 10.00 Overcast BKN060 OVC090 53.6 53.6 100% 29.93 0.0
09 05:15 Calm 10.00 Overcast SCT060 OVC090 53.6 53.6 100% 29.92 0.0
09 04:55 Calm 10.00 Overcast BKN060 OVC090 53.6 51.8 94% 29.92 0.0
09 04:35 N 6 10.00 Overcast BKN060 OVC100 53.6 51.8 94% 29.93 0.0
09 04:15 Calm 10.00 Overcast SCT036 OVC100 53.6 53.6 100% 29.92 0.0
09 03:55 Calm 10.00 Mostly Cloudy SCT036 BKN100 53.6 51.8 94% 29.91 0.0
09 03:35 Calm 10.00 Mostly Cloudy BKN100 53.6 51.8 94% 29.91 0.0
09 03:15 Calm 10.00 Partly Cloudy SCT110 53.6 51.8 94% 29.92 0.0
09 02:55 Calm 10.00 Partly Cloudy BKN075 SCT085 53.6 51.8 94% 29.93 0.0
09 02:35 NW 3 10.00 Mostly Cloudy SCT085 BKN120 53.6 53.6 100% 29.95 0.0
09 02:15 Calm 10.00 Partly Cloudy SCT120 53.6 53.6 100% 29.96 0.0
09 01:55 Calm 10.00 Fair CLR 53.6 53.6 100% 29.96 0.0
09 01:35 Calm 10.00 Fair CLR 55.4 53.6 94% 29.96 0.0
09 01:15 Calm 10.00 Fair CLR 55.4 53.6 94% 29.96 0.0
09 00:55 Calm 10.00 Fair CLR 55.4 53.6 94% 29.97 0.0
09 00:35 Calm 10.00 Fair CLR 55.4 55.4 100% 29.98 0.0
09 00:15 Calm 10.00 Fair CLR 57.2 55.4 94% 29.99 0.0
08 23:55 Calm 10.00 Fair CLR 57.2 55.4 94% 29.99 0.0
08 23:35 Calm 10.00 Fair CLR 57.2 55.4 94% 29.99 0.0
08 23:15 Calm 10.00 Fair CLR 57.2 55.4 94% 30 0.0
08 22:55 Calm 10.00 Partly Cloudy SCT037 57.2 55.4 94% 30 0.0
08 22:35 Calm 10.00 Fair CLR 59 55.4 88% 29.99 0.0
08 22:15 Calm 10.00 Partly Cloudy SCT045 59 55.4 88% 29.99 0.0
08 21:55 Calm 10.00 Partly Cloudy SCT045 59 55.4 88% 29.99 0.0
08 21:35 Calm 10.00 Fair CLR 59 55.4 88% 29.99 0.0
08 21:15 Calm 10.00 Fair CLR 59 57.2 94% 29.98 0.0
08 20:55 Calm 10.00 Fair CLR 60.8 55.4 83% 29.98 0.0
08 20:35 Calm 7.00 Fair CLR 60.8 55.4 83% 29.98 0.0
08 20:15 Calm 10.00 Fair CLR 62.6 55.4 77% 29.98 0.0
08 19:55 Calm 10.00 Fair CLR 62.6 53.6 73% 29.98 0.0
08 19:35 SW 3 10.00 Fair CLR 64.4 53.6 68% 29.97 0.0
08 19:15 SW 3 10.00 Fair CLR 66.2 51.8 60% 29.97 0.0
08 18:55 S 5 10.00 Fair CLR 66.2 51.8 60% 29.98 0.0
08 18:35 S 3 10.00 Fair CLR 66.2 51.8 60% 29.97 0.0
08 18:15 S 5 10.00 Fair CLR 66.2 51.8 60% 29.98 0.0
08 17:55 S 3 10.00 Fair CLR 68 51.8 56% 29.97 0.0
08 17:35 S 3 10.00 Fair CLR 68 50 53% 29.97 0.0
08 17:15 SW 3 10.00 Fair CLR 68 50 53% 29.97 0.0
08 16:55 S 7 10.00 Fair CLR 69.8 50 50% 29.98 0.0
08 16:35 SW 9 10.00 Fair CLR 69.8 48.2 46% 29.97 0.0
08 16:15 S 7 10.00 Partly Cloudy SCT050 69.8 48.2 46% 29.98 0.0
08 15:55 SE 5 10.00 Partly Cloudy SCT050 69.8 48.2 46% 29.99 0.0
08 15:35 S 8 10.00 Partly Cloudy SCT050 69.8 48.2 46% 30 0.0
08 15:15 SW 5 10.00 Partly Cloudy SCT049 69.8 46.4 43% 30.01 0.0
08 14:55 SW 9 10.00 Partly Cloudy SCT049 71.6 48.2 44% 30.01 0.0
08 14:35 S 5 10.00 Partly Cloudy SCT049 68 46.4 46% 30.02 0.0
08 14:15 S 5 10.00 Mostly Cloudy BKN049 71.6 48.2 44% 30.03 0.0
08 13:55 NW 5 10.00 Partly Cloudy SCT049 69.8 46.4 43% 30.04 0.0
08 13:35 E 8 10.00 Partly Cloudy SCT049 68 48.2 49% 30.05 0.0
08 13:15 SW 9 10.00 Partly Cloudy SCT049 69.8 48.2 46% 30.05 0.0
08 12:55 SW 7 10.00 Partly Cloudy SCT045 68 48.2 49% 30.06 0.0
08 12:35 SE 7 10.00 Overcast OVC043 66.2 48.2 52% 30.07 0.0
08 12:15 SE 7 10.00 Mostly Cloudy BKN043 68 46.4 46% 30.08 0.0
08 11:55 S 7 10.00 Partly Cloudy SCT041 66.2 48.2 52% 30.09 0.0
08 11:35 NE 7 10.00 Fair CLR 66.2 48.2 52% 30.09 0.0
08 11:15 E 3 10.00 Fair CLR 66.2 46.4 49% 30.1 0.0
08 10:55 S 3 10.00 Fair CLR 64.4 48.2 56% 30.1 0.0
08 10:35 S 3 10.00 Fair CLR 62.6 48.2 60% 30.1 0.0
08 10:15 E 7 10.00 Fair CLR 62.6 48.2 60% 30.1 0.0
08 09:55 E 3 10.00 Fair CLR 60.8 50 68% 30.1 0.0
08 09:35 NE 3 10.00 Fair CLR 59 50 72% 30.11 0.0
08 09:15 N 5 10.00 Fair CLR 57.2 48.2 72% 30.11 0.0
08 08:55 NW 3 10.00 Fair CLR 55.4 48.2 77% 30.1 0.0
08 08:35 N 5 10.00 Fair CLR 55.4 48.2 77% 30.09 0.0
08 08:15 Calm 10.00 Fair CLR 53.6 48.2 82% 30.08 0.0
08 07:55 Calm 10.00 Fair CLR 51.8 48.2 88% 30.07 0.0
08 07:35 Calm 10.00 Fair CLR 50 48.2 94% 30.07 0.0
08 07:15 Calm 10.00 Fair CLR 50 48.2 94% 30.06 0.0
08 06:55 N 5 10.00 Fair CLR 50 48.2 94% 49 30.03 0.0
08 06:35 N 3 10.00 Fair CLR 48.2 48.2 100% 30.03 0.0
08 06:15 Calm 10.00 Fair CLR 48.2 48.2 100% 30.02 0.0
08 05:55 NE 5 10.00 Fair CLR 48.2 48.2 100% 47 30.01 0.0
08 05:35 E 6 10.00 Fair CLR 50 46.4 88% 48 30.01 0.0
08 05:15 NW 6 10.00 Fair CLR 50 48.2 94% 48 30 0.0
08 04:55 NW 3 10.00 Fair CLR 50 48.2 94% 30 0.0
08 04:35 NW 6 10.00 Fair CLR 51.8 48.2 88% 29.99 0.0
08 04:15 Calm 10.00 Fair CLR 48.2 48.2 100% 29.99 0.0
08 03:55 NW 5 10.00 Fair CLR 50 48.2 94% 49 29.99 0.0
08 03:35 NW 5 10.00 Fair CLR 51.8 48.2 88% 30 0.0
08 03:15 NW 5 10.00 Fair CLR 51.8 50 94% 29.99 0.0
08 02:55 W 3 10.00 Fair CLR 53.6 50 88% 29.99 0.0
08 02:35 W 5 10.00 Fair CLR 51.8 50 94% 29.99 0.0
08 02:15 W 3 10.00 Fair CLR 51.8 50 94% 29.99 0.0
08 01:55 W 5 10.00 Fair CLR 55.4 50 82% 29.99 0.0
08 01:35 W 6 10.00 Fair CLR 53.6 50 88% 29.99 0.0
08 01:15 Calm 10.00 Fair CLR 53.6 50 88% 30 0.0
08 00:55 W 5 10.00 Fair CLR 55.4 50 82% 30 0.0
08 00:35 Calm 10.00 Fair CLR 55.4 50 82% 29.99 0.0
08 00:15 Calm 10.00 Fair CLR 55.4 50 82% 29.98 0.0
07 23:55 NW 5 10.00 Fair CLR 57.2 50 77% 29.98 0.0
07 23:35 W 6 10.00 Fair CLR 57.2 50 77% 29.98 0.0
07 23:15 W 6 10.00 Fair CLR 59 50 72% 29.98 0.0
07 22:55 W 8 10.00 Fair CLR 59 50 72% 29.98 0.0
07 22:35 W 7 10.00 Fair CLR 59 50 72% 29.97 0.0
07 22:15 W 5 10.00 Fair CLR 60.8 50 68% 29.96 0.0
07 21:55 W 6 10.00 Fair CLR 60.8 50 68% 29.96 0.0
07 21:35 W 8 10.00 Fair CLR 60.8 50 68% 29.95 0.0
07 21:15 W 8 10.00 Fair CLR 62.6 50 64% 29.94 0.0
07 20:55 W 7 10.00 Fair CLR 62.6 50 64% 29.94 0.0
07 20:35 W 8 10.00 Fair CLR 62.6 50 64% 29.93 0.0
07 20:15 W 7 10.00 Fair CLR 64.4 51.8 64% 29.92 0.0
07 19:55 W 6 10.00 Fair CLR 66.2 51.8 60% 29.91 0.0
07 19:35 W 7 10.00 Fair CLR 66.2 51.8 60% 29.91 0.0
07 19:15 W 9 10.00 Fair CLR 68 51.8 56% 29.9 0.0
07 18:55 W 9 G 20 10.00 Fair CLR 68 51.8 56% 29.9 0.0
07 18:35 NW 12 G 17 10.00 Fair CLR 71.6 51.8 50% 29.89 0.0
07 18:15 W 13 G 21 10.00 Fair CLR 73.4 53.6 50% 29.87 0.0
07 17:55 W 9 G 18 10.00 Fair CLR 73.4 53.6 50% 29.86 0.0
07 17:35 W 9 G 18 10.00 Fair CLR 75.2 55.4 50% 78 29.85 0.0
07 17:15 W 8 G 18 10.00 Partly Cloudy SCT041 75.2 57.2 54% 78 29.84 0.0
07 16:55 W 12 G 18 10.00 Mostly Cloudy BKN041 75.2 57.2 54% 78 29.85 0.0
07 16:35 W 16 G 25 10.00 Mostly Cloudy BKN041 77 57.2 51% 79 29.84 0.0
07 16:15 W 13 10.00 Partly Cloudy SCT043 77 57.2 51% 79 29.84 0.0
07 15:55 W 13 G 20 10.00 Partly Cloudy SCT043 77 57.2 51% 79 29.85 0.0
07 15:35 W 15 G 21 10.00 Partly Cloudy SCT041 77 57.2 51% 79 29.84 0.0
07 15:15 W 16 G 24 10.00 Fair CLR 77 57.2 51% 79 29.85 0.0
07 14:55 W 13 G 23 10.00 Partly Cloudy SCT036 SCT043 77 59 54% 79 29.86 0.0
07 14:35 W 13 G 18 10.00 Mostly Cloudy SCT036 BKN043 77 60.8 57% 79 29.86 0.0
07 14:15 W 13 G 21 10.00 Overcast BKN034 BKN043 OVC049 75.2 60.8 61% 77 29.86 0.0
07 13:55 W 12 G 17 10.00 Overcast BKN032 BKN039 OVC050 77 62.6 61% 79 29.86 0.0
07 13:35 W 9 10.00 Overcast SCT041 OVC050 75.2 62.6 65% 77 29.86 0.0
Date Time (edt) Wind (mph) Vis. (mi.) Weather Sky Cond. Air Dwpt Max. Min. Relative Humidity Wind Chill (°F) Heat Index (°F) altimeter (in) sea level (mb) 1 hr 3 hr 6 hr
6 hour
Temperature (ºF) Pressure Precipitation (in)